sensor_id;sensor_type;location;lat;lon;timestamp;pressure;altitude;pressure_sealevel;temperature;humidity
56142;BME280;42018;48.588;10.836;2024-01-11T00:02:12;97661.22;;;-2.20;63.85
56142;BME280;42018;48.588;10.836;2024-01-11T00:04:58;97654.88;;;-2.01;63.00
56142;BME280;42018;48.588;10.836;2024-01-11T00:07:43;97658.47;;;-2.26;63.60
56142;BME280;42018;48.588;10.836;2024-01-11T00:10:29;97663.00;;;-2.20;63.27
56142;BME280;42018;48.588;10.836;2024-01-11T00:13:14;97659.28;;;-2.01;63.15
56142;BME280;42018;48.588;10.836;2024-01-11T00:16:00;97657.97;;;-1.97;62.65
56142;BME280;42018;48.588;10.836;2024-01-11T00:18:45;97656.00;;;-2.03;62.27
56142;BME280;42018;48.588;10.836;2024-01-11T00:21:31;97663.34;;;-2.23;62.60
56142;BME280;42018;48.588;10.836;2024-01-11T00:24:16;97663.34;;;-2.23;62.48
56142;BME280;42018;48.588;10.836;2024-01-11T00:27:02;97667.44;;;-2.79;64.23
56142;BME280;42018;48.588;10.836;2024-01-11T00:29:47;97670.72;;;-2.61;64.56
56142;BME280;42018;48.588;10.836;2024-01-11T00:32:33;97668.84;;;-2.34;64.07
56142;BME280;42018;48.588;10.836;2024-01-11T00:35:18;97679.72;;;-3.58;67.40
56142;BME280;42018;48.588;10.836;2024-01-11T00:38:04;97673.78;;;-2.74;65.51
56142;BME280;42018;48.588;10.836;2024-01-11T00:40:50;97671.44;;;-2.34;64.09
56142;BME280;42018;48.588;10.836;2024-01-11T00:43:35;97672.06;;;-2.24;63.20
56142;BME280;42018;48.588;10.836;2024-01-11T00:46:21;97671.78;;;-2.13;62.47
56142;BME280;42018;48.588;10.836;2024-01-11T00:49:06;97674.38;;;-2.13;62.40
56142;BME280;42018;48.588;10.836;2024-01-11T00:51:52;97674.38;;;-2.05;61.94
56142;BME280;42018;48.588;10.836;2024-01-11T00:54:37;97672.91;;;-2.07;61.60
56142;BME280;42018;48.588;10.836;2024-01-11T00:57:23;97677.09;;;-2.39;61.12
56142;BME280;42018;48.588;10.836;2024-01-11T01:00:10;97672.41;;;-2.11;61.34
56142;BME280;42018;48.588;10.836;2024-01-11T01:02:59;97675.50;;;-1.99;60.94
56142;BME280;42018;48.588;10.836;2024-01-11T01:05:45;97670.31;;;-1.91;60.00
56142;BME280;42018;48.588;10.836;2024-01-11T01:08:31;97670.31;;;-1.91;60.06
56142;BME280;42018;48.588;10.836;2024-01-11T01:11:17;97667.38;;;-1.96;59.91
56142;BME280;42018;48.588;10.836;2024-01-11T01:14:02;97670.13;;;-1.89;59.57
56142;BME280;42018;48.588;10.836;2024-01-11T01:16:48;97677.59;;;-1.86;59.82
56142;BME280;42018;48.588;10.836;2024-01-11T01:19:33;97681.31;;;-1.89;59.63
56142;BME280;42018;48.588;10.836;2024-01-11T01:22:19;97681.50;;;-1.82;59.83
56142;BME280;42018;48.588;10.836;2024-01-11T01:25:04;97676.78;;;-1.79;59.25
56142;BME280;42018;48.588;10.836;2024-01-11T01:27:50;97678.91;;;-1.74;59.30
56142;BME280;42018;48.588;10.836;2024-01-11T01:30:36;97678.41;;;-1.86;58.83
56142;BME280;42018;48.588;10.836;2024-01-11T01:33:21;97689.63;;;-1.94;59.02
56142;BME280;42018;48.588;10.836;2024-01-11T01:36:10;97688.31;;;-1.98;59.38
56142;BME280;42018;48.588;10.836;2024-01-11T01:38:56;97701.91;;;-2.28;60.14
56142;BME280;42018;48.588;10.836;2024-01-11T01:41:41;97696.13;;;-2.06;59.59
56142;BME280;42018;48.588;10.836;2024-01-11T01:44:27;97698.06;;;-2.08;59.57
56142;BME280;42018;48.588;10.836;2024-01-11T01:47:12;97696.41;;;-2.17;59.73
56142;BME280;42018;48.588;10.836;2024-01-11T01:49:58;97709.09;;;-2.06;59.68
56142;BME280;42018;48.588;10.836;2024-01-11T01:52:44;97709.09;;;-1.98;59.36
56142;BME280;42018;48.588;10.836;2024-01-11T01:55:30;97712.81;;;-2.00;59.33
56142;BME280;42018;48.588;10.836;2024-01-11T01:58:17;97709.91;;;-2.05;59.36
56142;BME280;42018;48.588;10.836;2024-01-11T02:01:03;97724.19;;;-2.09;59.35
56142;BME280;42018;48.588;10.836;2024-01-11T02:03:50;97715.06;;;-2.13;59.58
56142;BME280;42018;48.588;10.836;2024-01-11T02:06:37;97714.59;;;-2.17;59.64
56142;BME280;42018;48.588;10.836;2024-01-11T02:09:24;97716.84;;;-2.14;59.21
56142;BME280;42018;48.588;10.836;2024-01-11T02:12:10;97727.25;;;-2.14;59.52
56142;BME280;42018;48.588;10.836;2024-01-11T02:14:58;97718.00;;;-2.17;59.66
56142;BME280;42018;48.588;10.836;2024-01-11T02:17:44;97718.31;;;-2.03;59.43
56142;BME280;42018;48.588;10.836;2024-01-11T02:20:30;97714.94;;;-2.04;59.10
56142;BME280;42018;48.588;10.836;2024-01-11T02:23:17;97709.72;;;-2.04;59.14
56142;BME280;42018;48.588;10.836;2024-01-11T02:26:05;97706.00;;;-2.01;59.28
56142;BME280;42018;48.588;10.836;2024-01-11T02:28:50;97709.91;;;-1.97;59.04
56142;BME280;42018;48.588;10.836;2024-01-11T02:31:36;97707.66;;;-1.92;58.99
56142;BME280;42018;48.588;10.836;2024-01-11T02:34:26;97709.09;;;-1.89;59.03
56142;BME280;42018;48.588;10.836;2024-01-11T02:37:12;97711.69;;;-1.89;58.60
56142;BME280;42018;48.588;10.836;2024-01-11T02:39:58;97712.66;;;-1.90;58.91
56142;BME280;42018;48.588;10.836;2024-01-11T02:42:43;97713.00;;;-1.94;58.74
56142;BME280;42018;48.588;10.836;2024-01-11T02:45:29;97710.38;;;-1.94;58.86
56142;BME280;42018;48.588;10.836;2024-01-11T02:48:15;97708.59;;;-1.93;58.92
56142;BME280;42018;48.588;10.836;2024-01-11T02:51:00;97703.09;;;-1.90;58.91
56142;BME280;42018;48.588;10.836;2024-01-11T02:53:46;97701.63;;;-1.93;59.06
56142;BME280;42018;48.588;10.836;2024-01-11T02:56:31;97704.22;;;-1.93;59.30
56142;BME280;42018;48.588;10.836;2024-01-11T02:59:17;97698.03;;;-2.00;59.07
56142;BME280;42018;48.588;10.836;2024-01-11T03:02:03;97699.03;;;-2.09;59.63
56142;BME280;42018;48.588;10.836;2024-01-11T03:04:49;97689.28;;;-2.23;60.03
56142;BME280;42018;48.588;10.836;2024-01-11T03:07:35;97692.19;;;-2.26;60.51
56142;BME280;42018;48.588;10.836;2024-01-11T03:10:23;97694.31;;;-2.30;60.93
56142;BME280;42018;48.588;10.836;2024-01-11T03:13:09;97688.78;;;-2.27;61.32
56142;BME280;42018;48.588;10.836;2024-01-11T03:15:54;97684.41;;;-2.26;61.16
56142;BME280;42018;48.588;10.836;2024-01-11T03:18:40;97682.00;;;-2.20;61.00
56142;BME280;42018;48.588;10.836;2024-01-11T03:21:25;97678.25;;;-2.33;61.15
56142;BME280;42018;48.588;10.836;2024-01-11T03:24:11;97684.41;;;-2.34;61.42
56142;BME280;42018;48.588;10.836;2024-01-11T03:26:56;97686.34;;;-2.36;61.55
56142;BME280;42018;48.588;10.836;2024-01-11T03:29:42;97680.03;;;-2.26;61.67
56142;BME280;42018;48.588;10.836;2024-01-11T03:32:27;97673.41;;;-2.20;61.65
56142;BME280;42018;48.588;10.836;2024-01-11T03:35:13;97672.09;;;-2.16;61.20
56142;BME280;42018;48.588;10.836;2024-01-11T03:37:59;97667.53;;;-2.30;61.11
56142;BME280;42018;48.588;10.836;2024-01-11T03:40:44;97663.78;;;-2.36;61.50
56142;BME280;42018;48.588;10.836;2024-01-11T03:43:30;97659.59;;;-2.45;61.76
56142;BME280;42018;48.588;10.836;2024-01-11T03:46:15;97650.63;;;-2.51;61.87
56142;BME280;42018;48.588;10.836;2024-01-11T03:49:01;97658.59;;;-2.52;62.28
56142;BME280;42018;48.588;10.836;2024-01-11T03:51:46;97662.31;;;-2.47;62.49
56142;BME280;42018;48.588;10.836;2024-01-11T03:54:32;97666.88;;;-2.41;62.58
56142;BME280;42018;48.588;10.836;2024-01-11T03:57:18;97666.69;;;-2.39;62.06
56142;BME280;42018;48.588;10.836;2024-01-11T04:00:04;97665.53;;;-2.61;62.24
56142;BME280;42018;48.588;10.836;2024-01-11T04:02:53;97669.91;;;-2.61;62.16
56142;BME280;42018;48.588;10.836;2024-01-11T04:05:39;97667.19;;;-2.52;62.12
56142;BME280;42018;48.588;10.836;2024-01-11T04:08:24;97671.41;;;-2.43;61.97
56142;BME280;42018;48.588;10.836;2024-01-11T04:11:10;97671.44;;;-2.34;62.11
56142;BME280;42018;48.588;10.836;2024-01-11T04:13:56;97671.44;;;-2.34;61.63
56142;BME280;42018;48.588;10.836;2024-01-11T04:16:42;97665.59;;;-2.36;61.74
56142;BME280;42018;48.588;10.836;2024-01-11T04:19:27;97667.19;;;-2.35;62.05
56142;BME280;42018;48.588;10.836;2024-01-11T04:22:13;97667.22;;;-2.27;62.04
56142;BME280;42018;48.588;10.836;2024-01-11T04:24:59;97675.19;;;-2.12;61.40
56142;BME280;42018;48.588;10.836;2024-01-11T04:27:44;97669.84;;;-2.03;60.63
56142;BME280;42018;48.588;10.836;2024-01-11T04:30:31;97670.94;;;-2.30;60.83
56142;BME280;42018;48.588;10.836;2024-01-11T04:33:16;97670.28;;;-2.32;61.13
56142;BME280;42018;48.588;10.836;2024-01-11T04:36:02;97673.69;;;-2.48;61.23
56142;BME280;42018;48.588;10.836;2024-01-11T04:38:48;97669.94;;;-2.53;62.03
56142;BME280;42018;48.588;10.836;2024-01-11T04:41:35;97668.47;;;-2.56;62.26
56142;BME280;42018;48.588;10.836;2024-01-11T04:44:22;97667.81;;;-2.50;62.81
56142;BME280;42018;48.588;10.836;2024-01-11T04:47:07;97674.16;;;-2.44;62.72
56142;BME280;42018;48.588;10.836;2024-01-11T04:49:53;97669.78;;;-2.35;62.34
56142;BME280;42018;48.588;10.836;2024-01-11T04:52:39;97668.53;;;-2.23;62.28
56142;BME280;42018;48.588;10.836;2024-01-11T04:55:24;97674.03;;;-2.26;61.80
56142;BME280;42018;48.588;10.836;2024-01-11T04:58:10;97672.06;;;-2.24;61.96
56142;BME280;42018;48.588;10.836;2024-01-11T05:00:55;97666.25;;;-2.26;61.67
56142;BME280;42018;48.588;10.836;2024-01-11T05:03:45;97668.97;;;-2.36;62.16
56142;BME280;42018;48.588;10.836;2024-01-11T05:06:31;97657.13;;;-2.38;61.92
56142;BME280;42018;48.588;10.836;2024-01-11T05:12:02;97667.84;;;-2.17;61.62
56142;BME280;42018;48.588;10.836;2024-01-11T05:14:48;97657.47;;;-2.17;61.24
56142;BME280;42018;48.588;10.836;2024-01-11T05:17:34;97653.41;;;-2.28;61.62
56142;BME280;42018;48.588;10.836;2024-01-11T05:20:19;97651.94;;;-2.38;60.90
56142;BME280;42018;48.588;10.836;2024-01-11T05:23:05;97655.88;;;-2.34;61.47
56142;BME280;42018;48.588;10.836;2024-01-11T05:25:50;97662.53;;;-2.24;61.23
56142;BME280;42018;48.588;10.836;2024-01-11T05:28:39;97680.19;;;-2.19;60.85
56142;BME280;42018;48.588;10.836;2024-01-11T05:31:24;97679.38;;;-2.28;61.34
56142;BME280;42018;48.588;10.836;2024-01-11T05:37:16;97681.31;;;-2.30;61.07
56142;BME280;42018;48.588;10.836;2024-01-11T05:40:02;97677.94;;;-2.22;61.36
56142;BME280;42018;48.588;10.836;2024-01-11T05:42:48;97680.19;;;-2.27;60.97
56142;BME280;42018;48.588;10.836;2024-01-11T05:45:33;97687.00;;;-2.26;60.52
56142;BME280;42018;48.588;10.836;2024-01-11T05:48:19;97693.63;;;-2.32;61.08
56142;BME280;42018;48.588;10.836;2024-01-11T05:51:05;97702.09;;;-2.30;60.78
56142;BME280;42018;48.588;10.836;2024-01-11T05:53:51;97709.88;;;-2.38;60.74
56142;BME280;42018;48.588;10.836;2024-01-11T05:56:36;97701.91;;;-2.45;60.50
56142;BME280;42018;48.588;10.836;2024-01-11T05:59:22;97703.16;;;-2.65;61.15
56142;BME280;42018;48.588;10.836;2024-01-11T06:02:07;97701.53;;;-2.58;61.47
56142;BME280;42018;48.588;10.836;2024-01-11T06:04:53;97713.41;;;-2.47;61.28
56142;BME280;42018;48.588;10.836;2024-01-11T06:07:39;97715.50;;;-2.43;61.40
56142;BME280;42018;48.588;10.836;2024-01-11T06:10:24;97728.47;;;-2.51;60.70
56142;BME280;42018;48.588;10.836;2024-01-11T06:13:10;97726.81;;;-2.68;61.10
56142;BME280;42018;48.588;10.836;2024-01-11T06:15:55;97728.47;;;-2.93;62.65
56142;BME280;42018;48.588;10.836;2024-01-11T06:18:41;97726.19;;;-2.62;61.56
56142;BME280;42018;48.588;10.836;2024-01-11T06:21:26;97731.25;;;-2.52;61.12
56142;BME280;42018;48.588;10.836;2024-01-11T06:24:12;97729.47;;;-2.52;60.96
56142;BME280;42018;48.588;10.836;2024-01-11T06:26:58;97723.78;;;-2.55;60.95
56142;BME280;42018;48.588;10.836;2024-01-11T06:29:43;97722.47;;;-2.51;60.80
56142;BME280;42018;48.588;10.836;2024-01-11T06:32:29;97727.19;;;-2.55;60.15
56142;BME280;42018;48.588;10.836;2024-01-11T06:35:14;97735.44;;;-3.02;62.16
56142;BME280;42018;48.588;10.836;2024-01-11T06:38:00;97728.56;;;-2.77;61.62
56142;BME280;42018;48.588;10.836;2024-01-11T06:40:46;97739.22;;;-2.88;61.30
56142;BME280;42018;48.588;10.836;2024-01-11T06:43:32;97736.88;;;-2.65;60.31
56142;BME280;42018;48.588;10.836;2024-01-11T06:46:21;97732.00;;;-2.68;60.32
56142;BME280;42018;48.588;10.836;2024-01-11T06:49:07;97732.69;;;-2.58;60.47
56142;BME280;42018;48.588;10.836;2024-01-11T06:51:53;97732.38;;;-2.55;60.02
56142;BME280;42018;48.588;10.836;2024-01-11T06:54:39;97738.78;;;-2.67;59.96
56142;BME280;42018;48.588;10.836;2024-01-11T06:57:25;97735.56;;;-2.61;59.86
56142;BME280;42018;48.588;10.836;2024-01-11T07:00:12;97737.34;;;-3.04;60.65
56142;BME280;42018;48.588;10.836;2024-01-11T07:02:58;97726.59;;;-3.17;60.73
56142;BME280;42018;48.588;10.836;2024-01-11T07:05:44;97734.00;;;-3.22;61.01
56142;BME280;42018;48.588;10.836;2024-01-11T07:08:30;97746.44;;;-3.34;61.40
56142;BME280;42018;48.588;10.836;2024-01-11T07:11:16;97756.44;;;-3.13;61.06
56142;BME280;42018;48.588;10.836;2024-01-11T07:14:01;97752.13;;;-2.96;60.93
56142;BME280;42018;48.588;10.836;2024-01-11T07:16:49;97757.22;;;-2.78;60.39
56142;BME280;42018;48.588;10.836;2024-01-11T07:19:35;97756.41;;;-2.79;60.44
56142;BME280;42018;48.588;10.836;2024-01-11T07:22:22;97765.72;;;-2.68;59.90
56142;BME280;42018;48.588;10.836;2024-01-11T07:25:07;97767.16;;;-2.74;59.31
56142;BME280;42018;48.588;10.836;2024-01-11T07:27:53;97770.06;;;-2.77;59.79
56142;BME280;42018;48.588;10.836;2024-01-11T07:30:38;97768.41;;;-2.78;59.14
56142;BME280;42018;48.588;10.836;2024-01-11T07:33:25;97769.16;;;-2.94;59.71
56142;BME280;42018;48.588;10.836;2024-01-11T07:36:10;97767.53;;;-2.95;60.16
56142;BME280;42018;48.588;10.836;2024-01-11T07:38:57;97777.38;;;-2.72;59.21
56142;BME280;42018;48.588;10.836;2024-01-11T07:41:42;97780.66;;;-2.62;59.33
56142;BME280;42018;48.588;10.836;2024-01-11T07:44:28;97777.06;;;-2.69;59.17
56142;BME280;42018;48.588;10.836;2024-01-11T07:47:14;97775.34;;;-2.86;59.46
56142;BME280;42018;48.588;10.836;2024-01-11T07:49:59;97787.16;;;-3.18;59.54
56142;BME280;42018;48.588;10.836;2024-01-11T07:52:45;97802.38;;;-3.23;61.01
56142;BME280;42018;48.588;10.836;2024-01-11T07:55:31;97797.34;;;-2.99;60.53
56142;BME280;42018;48.588;10.836;2024-01-11T07:58:17;97799.00;;;-2.90;60.53
56142;BME280;42018;48.588;10.836;2024-01-11T08:01:03;97805.47;;;-2.94;59.54
56142;BME280;42018;48.588;10.836;2024-01-11T08:03:50;97812.78;;;-2.89;60.01
56142;BME280;42018;48.588;10.836;2024-01-11T08:06:37;97825.44;;;-2.86;59.36
56142;BME280;42018;48.588;10.836;2024-01-11T08:09:23;97822.38;;;-2.81;59.42
56142;BME280;42018;48.588;10.836;2024-01-11T08:12:08;97822.53;;;-2.83;59.08
56142;BME280;42018;48.588;10.836;2024-01-11T08:14:54;97826.31;;;-2.77;59.35
56142;BME280;42018;48.588;10.836;2024-01-11T08:17:44;97822.47;;;-2.65;59.48
56142;BME280;42018;48.588;10.836;2024-01-11T08:20:30;97829.16;;;-2.54;59.28
56142;BME280;42018;48.588;10.836;2024-01-11T08:23:15;97825.09;;;-2.57;58.56
56142;BME280;42018;48.588;10.836;2024-01-11T08:26:01;97827.84;;;-2.58;58.59
56142;BME280;42018;48.588;10.836;2024-01-11T08:28:47;97830.06;;;-2.63;58.93
56142;BME280;42018;48.588;10.836;2024-01-11T08:31:33;97847.78;;;-2.59;58.92
56142;BME280;42018;48.588;10.836;2024-01-11T08:34:18;97850.38;;;-2.59;58.76
56142;BME280;42018;48.588;10.836;2024-01-11T08:37:04;97850.19;;;-2.66;58.86
56142;BME280;42018;48.588;10.836;2024-01-11T08:39:50;97852.63;;;-2.64;58.99
56142;BME280;42018;48.588;10.836;2024-01-11T08:42:35;97849.88;;;-2.62;58.93
56142;BME280;42018;48.588;10.836;2024-01-11T08:45:21;97847.94;;;-2.60;58.90
56142;BME280;42018;48.588;10.836;2024-01-11T08:48:07;97842.44;;;-2.57;58.72
56142;BME280;42018;48.588;10.836;2024-01-11T08:50:53;97841.97;;;-2.53;58.80
56142;BME280;42018;48.588;10.836;2024-01-11T08:53:39;97854.59;;;-2.58;58.94
56142;BME280;42018;48.588;10.836;2024-01-11T08:56:25;97847.59;;;-2.66;59.38
56142;BME280;42018;48.588;10.836;2024-01-11T09:01:56;97834.44;;;-2.98;60.65
56142;BME280;42018;48.588;10.836;2024-01-11T09:04:42;97835.16;;;-2.88;59.90
56142;BME280;42018;48.588;10.836;2024-01-11T09:07:28;97827.34;;;-3.14;60.83
56142;BME280;42018;48.588;10.836;2024-01-11T09:10:13;97816.53;;;-3.35;62.89
56142;BME280;42018;48.588;10.836;2024-01-11T09:12:59;97825.53;;;-3.22;62.72
56142;BME280;42018;48.588;10.836;2024-01-11T09:15:44;97829.44;;;-3.18;63.10
56142;BME280;42018;48.588;10.836;2024-01-11T09:18:30;97837.97;;;-3.25;63.47
56142;BME280;42018;48.588;10.836;2024-01-11T09:21:16;97838.47;;;-3.48;64.37
56142;BME280;42018;48.588;10.836;2024-01-11T09:24:01;97841.34;;;-3.51;65.47
56142;BME280;42018;48.588;10.836;2024-01-11T09:26:47;97831.94;;;-3.52;65.50
56142;BME280;42018;48.588;10.836;2024-01-11T09:29:35;97841.69;;;-3.64;66.38
56142;BME280;42018;48.588;10.836;2024-01-11T09:32:20;97847.16;;;-3.49;66.68
56142;BME280;42018;48.588;10.836;2024-01-11T09:35:06;97836.75;;;-3.57;67.29
56142;BME280;42018;48.588;10.836;2024-01-11T09:37:52;97840.75;;;-3.45;67.26
56142;BME280;42018;48.588;10.836;2024-01-11T09:40:38;97838.69;;;-3.41;66.71
56142;BME280;42018;48.588;10.836;2024-01-11T09:43:23;97854.34;;;-3.25;66.71
56142;BME280;42018;48.588;10.836;2024-01-11T09:46:10;97841.44;;;-3.17;66.82
56142;BME280;42018;48.588;10.836;2024-01-11T09:48:57;97823.28;;;-2.99;66.75
56142;BME280;42018;48.588;10.836;2024-01-11T09:51:46;97830.47;;;-2.84;66.00
56142;BME280;42018;48.588;10.836;2024-01-11T09:54:31;97840.63;;;-2.65;65.54
56142;BME280;42018;48.588;10.836;2024-01-11T09:57:24;97832.53;;;-2.62;65.09
56142;BME280;42018;48.588;10.836;2024-01-11T10:00:13;97843.25;;;-2.57;65.34
56142;BME280;42018;48.588;10.836;2024-01-11T10:03:00;97834.19;;;-2.53;64.22
56142;BME280;42018;48.588;10.836;2024-01-11T10:05:49;97829.75;;;-2.26;64.04
56142;BME280;42018;48.588;10.836;2024-01-11T10:08:34;97829.47;;;-2.07;63.32
56142;BME280;42018;48.588;10.836;2024-01-11T10:11:21;97821.19;;;-2.19;63.51
56142;BME280;42018;48.588;10.836;2024-01-11T10:14:06;97820.56;;;-2.12;63.35
56142;BME280;42018;48.588;10.836;2024-01-11T10:16:54;97820.59;;;-1.96;62.98
56142;BME280;42018;48.588;10.836;2024-01-11T10:19:40;97826.09;;;-2.50;63.40
56142;BME280;42018;48.588;10.836;2024-01-11T10:22:25;97818.69;;;-2.36;63.47
56142;BME280;42018;48.588;10.836;2024-01-11T10:25:13;97804.78;;;-2.27;63.84
56142;BME280;42018;48.588;10.836;2024-01-11T10:27:59;97807.72;;;-2.14;64.08
56142;BME280;42018;48.588;10.836;2024-01-11T10:30:48;97793.50;;;-1.85;63.29
56142;BME280;42018;48.588;10.836;2024-01-11T10:33:35;97797.41;;;-1.65;62.72
56142;BME280;42018;48.588;10.836;2024-01-11T10:36:21;97797.09;;;-1.70;63.17
56142;BME280;42018;48.588;10.836;2024-01-11T10:39:08;97787.34;;;-1.76;62.28
56142;BME280;42018;48.588;10.836;2024-01-11T10:42:06;97784.09;;;-1.54;62.12
56142;BME280;42018;48.588;10.836;2024-01-11T10:44:54;97793.84;;;-1.39;62.30
56142;BME280;42018;48.588;10.836;2024-01-11T10:48:01;97800.31;;;-1.19;61.56
56142;BME280;42018;48.588;10.836;2024-01-11T10:50:50;97792.19;;;-1.00;60.58
56142;BME280;42018;48.588;10.836;2024-01-11T10:53:46;97789.16;;;-0.72;60.11
56142;BME280;42018;48.588;10.836;2024-01-11T10:56:33;97792.09;;;-0.67;59.60
56142;BME280;42018;48.588;10.836;2024-01-11T10:59:20;97783.31;;;-0.66;59.39
56142;BME280;42018;48.588;10.836;2024-01-11T11:02:10;97789.41;;;-0.42;59.32
56142;BME280;42018;48.588;10.836;2024-01-11T11:04:58;97786.56;;;-0.64;59.28
56142;BME280;42018;48.588;10.836;2024-01-11T11:07:45;97786.63;;;-0.41;59.00
56142;BME280;42018;48.588;10.836;2024-01-11T11:10:36;97792.97;;;-0.43;58.66
56142;BME280;42018;48.588;10.836;2024-01-11T11:13:24;97779.19;;;-0.52;59.04
56142;BME280;42018;48.588;10.836;2024-01-11T11:16:10;97787.75;;;-0.43;59.02
56142;BME280;42018;48.588;10.836;2024-01-11T11:18:56;97780.19;;;-0.61;58.91
56142;BME280;42018;48.588;10.836;2024-01-11T11:21:43;97786.38;;;-0.62;58.96
56142;BME280;42018;48.588;10.836;2024-01-11T11:24:30;97789.59;;;-0.52;59.39
56142;BME280;42018;48.588;10.836;2024-01-11T11:27:16;97795.66;;;-0.29;59.02
56142;BME280;42018;48.588;10.836;2024-01-11T11:30:04;97796.25;;;-0.10;58.87
56142;BME280;42018;48.588;10.836;2024-01-11T11:32:51;97787.34;;;-0.24;58.54
56142;BME280;42018;48.588;10.836;2024-01-11T11:35:37;97777.44;;;-0.29;60.07
56142;BME280;42018;48.588;10.836;2024-01-11T11:38:25;97776.50;;;-0.36;60.04
56142;BME280;42018;48.588;10.836;2024-01-11T11:41:11;97769.72;;;-0.45;60.14
56142;BME280;42018;48.588;10.836;2024-01-11T11:44:04;97752.91;;;-0.34;60.48
56142;BME280;42018;48.588;10.836;2024-01-11T11:46:50;97740.63;;;-0.49;61.87
56142;BME280;42018;48.588;10.836;2024-01-11T11:52:54;97751.16;;;0.12;59.78
56142;BME280;42018;48.588;10.836;2024-01-11T11:55:42;97744.53;;;0.02;59.00
56142;BME280;42018;48.588;10.836;2024-01-11T11:58:28;97744.22;;;0.05;58.79
56142;BME280;42018;48.588;10.836;2024-01-11T12:01:15;97735.41;;;0.06;59.18
56142;BME280;42018;48.588;10.836;2024-01-11T12:04:02;97725.81;;;0.21;59.18
56142;BME280;42018;48.588;10.836;2024-01-11T12:06:48;97738.69;;;0.22;59.60
56142;BME280;42018;48.588;10.836;2024-01-11T12:09:33;97749.84;;;0.54;58.93
56142;BME280;42018;48.588;10.836;2024-01-11T12:12:19;97749.25;;;0.82;58.10
56142;BME280;42018;48.588;10.836;2024-01-11T12:15:07;97739.09;;;0.87;58.05
56142;BME280;42018;48.588;10.836;2024-01-11T12:17:59;97743.88;;;0.83;58.04
56142;BME280;42018;48.588;10.836;2024-01-11T12:20:45;97728.13;;;0.77;58.12
56142;BME280;42018;48.588;10.836;2024-01-11T12:23:31;97722.06;;;0.23;58.20
56142;BME280;42018;48.588;10.836;2024-01-11T12:26:19;97720.25;;;0.47;57.96
56142;BME280;42018;48.588;10.836;2024-01-11T12:29:07;97728.38;;;0.67;57.88
56142;BME280;42018;48.588;10.836;2024-01-11T12:31:56;97729.47;;;0.73;57.37
56142;BME280;42018;48.588;10.836;2024-01-11T12:34:44;97717.59;;;1.00;57.21
56142;BME280;42018;48.588;10.836;2024-01-11T12:37:30;97721.28;;;1.05;56.49
56142;BME280;42018;48.588;10.836;2024-01-11T12:40:16;97721.81;;;1.15;56.41
56142;BME280;42018;48.588;10.836;2024-01-11T12:43:02;97718.78;;;0.97;57.22
56142;BME280;42018;48.588;10.836;2024-01-11T12:45:48;97728.84;;;1.00;56.91
56142;BME280;42018;48.588;10.836;2024-01-11T12:48:34;97713.38;;;0.69;58.06
56142;BME280;42018;48.588;10.836;2024-01-11T12:51:20;97708.34;;;1.12;56.69
56142;BME280;42018;48.588;10.836;2024-01-11T12:54:11;97700.03;;;1.23;56.25
56142;BME280;42018;48.588;10.836;2024-01-11T12:56:57;97698.16;;;1.02;56.40
56142;BME280;42018;48.588;10.836;2024-01-11T12:59:43;97699.44;;;1.21;56.58
56142;BME280;42018;48.588;10.836;2024-01-11T13:02:30;97702.38;;;1.33;55.63
56142;BME280;42018;48.588;10.836;2024-01-11T13:05:16;97702.38;;;1.33;55.90
56142;BME280;42018;48.588;10.836;2024-01-11T13:08:02;97699.09;;;1.46;55.99
56142;BME280;42018;48.588;10.836;2024-01-11T13:10:51;97701.72;;;1.31;56.23
56142;BME280;42018;48.588;10.836;2024-01-11T13:13:36;97704.06;;;1.40;55.83
56142;BME280;42018;48.588;10.836;2024-01-11T13:16:24;97711.25;;;1.53;55.68
56142;BME280;42018;48.588;10.836;2024-01-11T13:19:10;97709.81;;;1.51;55.93
56142;BME280;42018;48.588;10.836;2024-01-11T13:21:56;97707.31;;;1.42;55.92
56142;BME280;42018;48.588;10.836;2024-01-11T13:24:42;97703.44;;;1.38;56.05
56142;BME280;42018;48.588;10.836;2024-01-11T13:27:28;97704.88;;;1.41;56.31
56142;BME280;42018;48.588;10.836;2024-01-11T13:30:13;97695.53;;;1.32;56.74
56142;BME280;42018;48.588;10.836;2024-01-11T13:32:59;97700.75;;;1.32;57.21
56142;BME280;42018;48.588;10.836;2024-01-11T13:35:45;97695.09;;;1.28;57.45
56142;BME280;42018;48.588;10.836;2024-01-11T13:38:31;97700.50;;;1.12;58.06
56142;BME280;42018;48.588;10.836;2024-01-11T13:41:16;97690.25;;;1.10;58.50
56142;BME280;42018;48.588;10.836;2024-01-11T13:44:02;97694.13;;;1.14;58.21
56142;BME280;42018;48.588;10.836;2024-01-11T13:46:51;97705.00;;;1.18;58.00
56142;BME280;42018;48.588;10.836;2024-01-11T13:49:36;97705.19;;;0.87;59.05
56142;BME280;42018;48.588;10.836;2024-01-11T13:52:22;97693.31;;;0.32;60.51
56142;BME280;42018;48.588;10.836;2024-01-11T13:55:07;97700.75;;;0.43;59.92
56142;BME280;42018;48.588;10.836;2024-01-11T13:57:55;97692.28;;;0.41;61.14
56142;BME280;42018;48.588;10.836;2024-01-11T14:00:41;97699.84;;;0.36;61.16
56142;BME280;42018;48.588;10.836;2024-01-11T14:03:27;97704.78;;;0.60;60.42
56142;BME280;42018;48.588;10.836;2024-01-11T14:06:12;97709.22;;;0.75;59.82
56142;BME280;42018;48.588;10.836;2024-01-11T14:08:58;97721.28;;;0.90;59.20
56142;BME280;42018;48.588;10.836;2024-01-11T14:11:44;97735.84;;;0.70;59.26
56142;BME280;42018;48.588;10.836;2024-01-11T14:14:30;97736.84;;;0.99;58.51
56142;BME280;42018;48.588;10.836;2024-01-11T14:17:15;97752.69;;;1.12;58.11
56142;BME280;42018;48.588;10.836;2024-01-11T14:20:01;97757.31;;;1.25;58.21
56142;BME280;42018;48.588;10.836;2024-01-11T14:22:47;97754.75;;;1.31;57.87
56142;BME280;42018;48.588;10.836;2024-01-11T14:25:36;97747.66;;;1.25;57.96
56142;BME280;42018;48.588;10.836;2024-01-11T14:28:22;97747.38;;;1.05;58.33
56142;BME280;42018;48.588;10.836;2024-01-11T14:31:07;97743.16;;;1.04;59.04
56142;BME280;42018;48.588;10.836;2024-01-11T14:33:53;97739.66;;;1.12;58.60
56142;BME280;42018;48.588;10.836;2024-01-11T14:36:39;97737.13;;;1.04;58.30
56142;BME280;42018;48.588;10.836;2024-01-11T14:39:25;97742.44;;;1.10;58.42
56142;BME280;42018;48.588;10.836;2024-01-11T14:42:10;97747.03;;;1.08;58.70
56142;BME280;42018;48.588;10.836;2024-01-11T14:44:56;97738.66;;;1.13;58.36